Time;durP1;ratioP1;P1;durP2;ratioP2;P2;SDS_P1;SDS_P2;PMS_P1;PMS_P2;Temp;Humidity;BMP_temperature;BMP_pressure;BME280_temperature;BME280_humidity;BME280_pressure;Samples;Min_cycle;Max_cycle;Signal;HPM_P1;HPM_P2
2022/09/27 00:01:51;;;;;;;;;;;;;;;13.05;100.00;96309.41;5081181;28;19928;-61
2022/09/27 00:04:18;;;;;;;;;;;;;;;12.98;100.00;96299.16;5078582;28;20011;-62
2022/09/27 00:06:44;;;;;;;;;;;;;;;13.05;100.00;96301.38;5077652;28;20336;-62
2022/09/27 00:09:10;;;;;;;;;;;;;;;13.01;100.00;96295.84;5078699;28;19952;-62
2022/09/27 00:11:38;;;;;;;;;;;;;;;13.16;100.00;96299.97;5081083;28;20155;-63
2022/09/27 00:14:05;;;;;;;;;;;;;;;13.61;100.00;96301.13;5080090;28;19964;-62
2022/09/27 00:16:33;;;;;;;;;;;;;;;14.42;100.00;96292.84;5076401;28;19980;-62
2022/09/27 00:19:01;;;;;;;;;;;;;;;14.03;100.00;96284.03;5077377;28;19932;-63
2022/09/27 00:21:29;;;;;;;;;;;;;;;13.75;100.00;96287.47;5072574;28;19936;-62
2022/09/27 00:23:55;;;;;;;;;;;;;;;13.61;100.00;96273.50;5088852;28;19943;-63
2022/09/27 00:26:22;;;;;;;;;;;;;;;13.84;100.00;96278.28;5081715;28;19952;-63
2022/09/27 00:28:48;;;;;;;;;;;;;;;13.57;100.00;96270.69;5081271;28;19931;-63
2022/09/27 00:31:20;;;;;;;;;;;;;;;13.63;100.00;96274.75;5082911;28;19984;-63
2022/09/27 00:33:47;;;;;;;;;;;;;;;13.50;100.00;96262.34;5084727;28;19928;-64
2022/09/27 00:36:15;;;;;;;;;;;;;;;13.41;100.00;96256.22;5082648;28;19930;-63
2022/09/27 00:38:42;;;;;;;;;;;;;;;13.49;100.00;96258.88;5081097;28;20023;-62
2022/09/27 00:41:09;;;;;;;;;;;;;;;13.83;100.00;96254.47;5081995;28;19924;-62
2022/09/27 00:43:43;;;;;;;;;;;;;;;13.96;100.00;96243.50;5084298;28;19924;-62
2022/09/27 00:46:10;;;;;;;;;;;;;;;14.50;100.00;96240.97;5082915;28;19932;-63
2022/09/27 00:48:37;;;;;;;;;;;;;;;14.74;100.00;96235.69;5080817;28;19925;-63
2022/09/27 00:51:05;;;;;;;;;;;;;;;14.99;100.00;96231.97;5080005;28;20001;-63
2022/09/27 00:53:35;;;;;;;;;;;;;;;15.09;100.00;96228.88;5092166;28;19924;-62
2022/09/27 00:56:04;;;;;;;;;;;;;;;15.17;100.00;96221.84;5083666;28;19967;-62
2022/09/27 00:58:33;;;;;;;;;;;;;;;15.20;100.00;96231.91;5080530;28;19995;-63
2022/09/27 01:01:02;;;;;;;;;;;;;;;15.23;100.00;96228.56;5080437;28;19975;-62
2022/09/27 01:03:31;;;;;;;;;;;;;;;15.26;100.00;96225.22;5072673;28;19924;-63
2022/09/27 01:05:59;;;;;;;;;;;;;;;15.17;100.00;96221.03;5080513;28;19925;-63
2022/09/27 01:08:25;;;;;;;;;;;;;;;15.15;100.00;96210.63;5083829;28;19935;-62
2022/09/27 01:10:59;;;;;;;;;;;;;;;15.14;100.00;96211.75;5083828;28;19925;-63
2022/09/27 01:13:29;;;;;;;;;;;;;;;15.16;100.00;96212.22;5072368;28;19925;-62
2022/09/27 01:16:01;;;;;;;;;;;;;;;15.19;100.00;96213.44;5080322;28;19971;-62
2022/09/27 01:18:31;;;;;;;;;;;;;;;15.24;100.00;96210.53;5072462;28;19960;-62
2022/09/27 01:21:09;;;;;;;;;;;;;;;15.21;100.00;96205.81;5079887;28;19952;-62
2022/09/27 01:24:00;;;;;;;;;;;;;;;15.09;100.00;96204.69;5078053;28;19947;-62
2022/09/27 01:26:34;;;;;;;;;;;;;;;15.13;100.00;96199.44;5061800;28;19968;-62
2022/09/27 01:29:04;;;;;;;;;;;;;;;15.14;100.00;96199.09;5080016;28;19952;-63
2022/09/27 01:31:33;;;;;;;;;;;;;;;15.12;100.00;96195.97;5082956;28;19924;-62
2022/09/27 01:34:04;;;;;;;;;;;;;;;15.21;100.00;96211.19;5083357;28;19934;-62
2022/09/27 01:36:34;;;;;;;;;;;;;;;15.21;100.00;96195.84;5072637;28;19956;-62
2022/09/27 01:39:09;;;;;;;;;;;;;;;15.26;100.00;96198.31;5079818;28;19960;-62
2022/09/27 01:41:39;;;;;;;;;;;;;;;15.30;100.00;96193.06;5083397;28;19975;-63
2022/09/27 01:44:09;;;;;;;;;;;;;;;15.37;100.00;96196.78;5082362;28;19924;-62
2022/09/27 01:46:39;;;;;;;;;;;;;;;15.27;100.00;96183.75;5079998;28;19935;-62
2022/09/27 01:49:10;;;;;;;;;;;;;;;15.17;100.00;96184.19;5080509;28;19976;-63
2022/09/27 01:51:39;;;;;;;;;;;;;;;15.18;100.00;96185.78;5082172;28;19931;-64
2022/09/27 01:54:07;;;;;;;;;;;;;;;15.05;100.00;96182.28;5090465;28;19920;-63
2022/09/27 01:56:35;;;;;;;;;;;;;;;15.06;100.00;96183.84;5079864;28;19953;-62
2022/09/27 01:59:05;;;;;;;;;;;;;;;15.07;100.00;96171.19;5079920;28;19964;-62
2022/09/27 02:01:34;;;;;;;;;;;;;;;14.98;100.00;96178.53;5082918;28;19925;-62
2022/09/27 02:04:03;;;;;;;;;;;;;;;15.10;100.00;96178.59;5082852;28;20140;-62
2022/09/27 02:06:30;;;;;;;;;;;;;;;15.04;100.00;96167.25;5079297;28;19924;-63
2022/09/27 02:08:59;;;;;;;;;;;;;;;14.91;100.00;96176.44;5079306;28;19965;-63
2022/09/27 02:11:26;;;;;;;;;;;;;;;14.92;100.00;96161.84;5070879;28;19925;-63
2022/09/27 02:13:54;;;;;;;;;;;;;;;14.96;100.00;96160.06;5079086;28;19976;-62
2022/09/27 02:16:23;;;;;;;;;;;;;;;15.09;100.00;96160.88;5081798;28;19958;-63
2022/09/27 02:18:54;;;;;;;;;;;;;;;15.09;100.00;96159.00;5082886;28;19924;-63
2022/09/27 02:21:25;;;;;;;;;;;;;;;14.97;100.00;96150.91;5079839;28;19924;-63
2022/09/27 02:23:54;;;;;;;;;;;;;;;15.08;100.00;96149.34;5086558;28;19991;-64
2022/09/27 02:26:23;;;;;;;;;;;;;;;15.07;100.00;96153.13;5079728;28;19991;-62
2022/09/27 02:28:56;;;;;;;;;;;;;;;15.02;100.00;96144.50;5078791;28;19936;-63
2022/09/27 02:31:24;;;;;;;;;;;;;;;15.02;100.00;96150.69;5081570;28;19974;-63
2022/09/27 02:33:52;;;;;;;;;;;;;;;14.97;100.00;96147.44;5081990;28;19928;-63
2022/09/27 02:36:19;;;;;;;;;;;;;;;14.98;100.00;96144.38;5079534;28;19967;-62
2022/09/27 02:38:47;;;;;;;;;;;;;;;14.87;100.00;96131.72;5078685;28;19951;-63
2022/09/27 02:41:14;;;;;;;;;;;;;;;14.82;100.00;96132.75;5080097;28;19925;-62
2022/09/27 02:43:41;;;;;;;;;;;;;;;14.87;100.00;96148.63;5081029;28;19932;-62
2022/09/27 02:46:16;;;;;;;;;;;;;;;14.78;100.00;96139.09;5080904;28;19924;-63
2022/09/27 02:48:46;;;;;;;;;;;;;;;14.62;100.00;96136.25;5078445;28;19971;-63
2022/09/27 02:51:19;;;;;;;;;;;;;;;14.58;100.00;96138.03;5079754;28;19932;-63
2022/09/27 02:53:55;;;;;;;;;;;;;;;14.59;100.00;96137.69;5089659;28;19927;-65
2022/09/27 02:56:25;;;;;;;;;;;;;;;14.50;100.00;96141.59;5078645;28;19968;-63
2022/09/27 02:58:58;;;;;;;;;;;;;;;14.41;100.00;96130.13;5077227;28;19928;-62
2022/09/27 03:01:29;;;;;;;;;;;;;;;14.43;100.00;96128.69;5080917;28;19979;-62
2022/09/27 03:03:58;;;;;;;;;;;;;;;14.52;100.00;96124.03;5081584;28;19924;-62
2022/09/27 03:06:25;;;;;;;;;;;;;;;14.57;100.00;96128.41;5078277;28;19971;-62
2022/09/27 03:08:53;;;;;;;;;;;;;;;14.64;100.00;96119.81;5078276;28;20031;-63
2022/09/27 03:11:19;;;;;;;;;;;;;;;14.70;100.00;96127.31;5080638;28;19963;-63
2022/09/27 03:13:45;;;;;;;;;;;;;;;14.70;100.00;96116.56;5081491;28;20408;-61
2022/09/27 03:16:12;;;;;;;;;;;;;;;14.80;100.00;96113.44;5079832;28;19960;-63
2022/09/27 03:18:39;;;;;;;;;;;;;;;14.79;100.00;96109.19;5078055;28;19925;-62
2022/09/27 03:21:05;;;;;;;;;;;;;;;14.80;100.00;96112.66;5077991;28;19972;-61
2022/09/27 03:23:31;;;;;;;;;;;;;;;14.68;100.00;96110.75;5089528;28;19960;-62
2022/09/27 03:25:59;;;;;;;;;;;;;;;14.76;100.00;96109.09;5081301;28;19959;-66
2022/09/27 03:28:28;;;;;;;;;;;;;;;14.58;100.00;96103.09;5077753;28;19925;-62
2022/09/27 03:30:54;;;;;;;;;;;;;;;14.45;100.00;96104.97;5077768;28;20281;-62
2022/09/27 03:33:21;;;;;;;;;;;;;;;14.30;100.00;96107.44;5080237;28;19929;-62
2022/09/27 03:35:47;;;;;;;;;;;;;;;14.45;100.00;96110.34;5081464;28;19967;-62
2022/09/27 03:38:14;;;;;;;;;;;;;;;14.48;100.00;96106.22;5079321;28;19924;-62
2022/09/27 03:40:40;;;;;;;;;;;;;;;14.45;100.00;96102.28;5077867;28;19956;-62
2022/09/27 03:43:08;;;;;;;;;;;;;;;14.49;100.00;96095.13;5078368;28;19978;-62
2022/09/27 03:45:34;;;;;;;;;;;;;;;14.39;100.00;96100.91;5081491;28;19924;-63
2022/09/27 03:48:01;;;;;;;;;;;;;;;14.41;100.00;96092.53;5081051;28;20594;-62
2022/09/27 03:50:27;;;;;;;;;;;;;;;14.31;100.00;96093.72;5069533;28;20104;-62
2022/09/27 03:52:53;;;;;;;;;;;;;;;14.28;100.00;96096.25;5084550;28;19924;-62
2022/09/27 03:55:20;;;;;;;;;;;;;;;14.33;100.00;96088.03;5084286;28;19932;-62
2022/09/27 03:57:47;;;;;;;;;;;;;;;14.27;100.00;96092.00;5085137;28;20059;-61
2022/09/27 04:00:15;;;;;;;;;;;;;;;14.40;100.00;96081.00;5083171;28;19973;-62
2022/09/27 04:02:41;;;;;;;;;;;;;;;14.41;100.00;96077.22;5081250;28;19939;-62
2022/09/27 04:05:08;;;;;;;;;;;;;;;14.06;100.00;96082.09;5082250;28;19948;-62
2022/09/27 04:07:34;;;;;;;;;;;;;;;14.22;100.00;96074.22;5084813;28;19925;-63
2022/09/27 04:10:00;;;;;;;;;;;;;;;14.22;100.00;96073.44;5084848;28;19920;-63
2022/09/27 04:12:27;;;;;;;;;;;;;;;14.27;100.00;96082.06;5073201;28;20265;-63
2022/09/27 04:14:54;;;;;;;;;;;;;;;14.32;100.00;96081.06;5081422;28;19925;-63
2022/09/27 04:17:21;;;;;;;;;;;;;;;14.32;100.00;96076.50;5083720;28;19924;-62
2022/09/27 04:19:48;;;;;;;;;;;;;;;14.24;100.00;96074.66;5084388;28;19959;-63
2022/09/27 04:22:14;;;;;;;;;;;;;;;14.16;100.00;96086.28;5084329;28;19990;-62
2022/09/27 04:24:41;;;;;;;;;;;;;;;14.34;100.00;96076.97;5087294;28;19921;-62
2022/09/27 04:27:07;;;;;;;;;;;;;;;14.25;100.00;96078.13;5081686;28;19964;-62
2022/09/27 04:29:34;;;;;;;;;;;;;;;14.41;100.00;96079.91;5084955;28;19951;-63
2022/09/27 04:32:00;;;;;;;;;;;;;;;14.33;100.00;96074.59;5084661;28;20019;-62
2022/09/27 04:37:10;;;;;;;;;;;;;;;14.29;100.00;96079.06;5081477;28;19925;-62
2022/09/27 04:39:38;;;;;;;;;;;;;;;14.22;100.00;96076.91;5084291;28;19929;-62
2022/09/27 04:42:04;;;;;;;;;;;;;;;14.22;100.00;96076.91;5083532;28;19924;-63
2022/09/27 04:44:31;;;;;;;;;;;;;;;14.22;100.00;96074.22;5080714;28;19988;-63
2022/09/27 04:46:57;;;;;;;;;;;;;;;14.21;100.00;96069.16;5080765;28;19925;-63
2022/09/27 04:49:24;;;;;;;;;;;;;;;14.08;100.00;96065.66;5083791;28;19960;-63
2022/09/27 04:51:51;;;;;;;;;;;;;;;14.13;100.00;96064.66;5084539;28;19984;-63
2022/09/27 04:54:18;;;;;;;;;;;;;;;14.07;100.00;96067.56;5089948;28;19951;-62
2022/09/27 04:56:44;;;;;;;;;;;;;;;14.08;100.00;96069.13;5080685;28;19933;-63
2022/09/27 04:59:10;;;;;;;;;;;;;;;14.08;100.00;96071.00;5081799;28;19953;-62
2022/09/27 05:01:37;;;;;;;;;;;;;;;14.12;100.00;96071.16;5083747;28;19920;-63
2022/09/27 05:04:03;;;;;;;;;;;;;;;14.18;100.00;96069.81;5083333;28;19967;-62
2022/09/27 05:06:29;;;;;;;;;;;;;;;14.19;100.00;96079.47;5079589;28;19967;-63
2022/09/27 05:08:58;;;;;;;;;;;;;;;14.06;100.00;96082.09;5080560;28;19921;-63
2022/09/27 05:11:25;;;;;;;;;;;;;;;14.10;100.00;96086.81;5083507;28;20547;-63
2022/09/27 05:13:51;;;;;;;;;;;;;;;14.22;100.00;96093.00;5083652;28;19924;-63
2022/09/27 05:16:18;;;;;;;;;;;;;;;14.13;100.00;96097.66;5081134;28;19962;-64
2022/09/27 05:18:45;;;;;;;;;;;;;;;14.08;100.00;96087.91;5079935;28;19929;-62
2022/09/27 05:21:11;;;;;;;;;;;;;;;13.97;100.00;96088.66;5080878;28;20381;-63
2022/09/27 05:23:37;;;;;;;;;;;;;;;14.10;100.00;96084.91;5091546;28;19924;-62
2022/09/27 05:26:05;;;;;;;;;;;;;;;14.11;100.00;96088.38;5082819;28;19971;-62
2022/09/27 05:28:34;;;;;;;;;;;;;;;14.08;100.00;96087.91;5079811;28;19967;-63
2022/09/27 05:31:00;;;;;;;;;;;;;;;13.93;100.00;96098.44;5079524;28;19992;-62
2022/09/27 05:33:26;;;;;;;;;;;;;;;13.93;100.00;96095.78;5071014;28;19973;-62
2022/09/27 05:35:53;;;;;;;;;;;;;;;13.99;100.00;96103.28;5079513;28;19925;-62
2022/09/27 05:38:20;;;;;;;;;;;;;;;14.16;100.00;96109.63;5082141;28;20039;-62
2022/09/27 05:40:49;;;;;;;;;;;;;;;14.13;100.00;96107.63;5083063;28;19963;-63
2022/09/27 05:43:17;;;;;;;;;;;;;;;14.19;100.00;96107.09;5080807;28;19920;-63
2022/09/27 05:45:43;;;;;;;;;;;;;;;14.17;100.00;96101.28;5079393;28;19928;-63
2022/09/27 05:48:11;;;;;;;;;;;;;;;14.17;100.00;96095.91;5080504;28;19924;-62
2022/09/27 05:50:38;;;;;;;;;;;;;;;14.25;100.00;96096.94;5082889;28;19960;-62
2022/09/27 05:53:04;;;;;;;;;;;;;;;14.16;100.00;96091.63;5082531;28;19925;-62
2022/09/27 05:55:30;;;;;;;;;;;;;;;14.14;100.00;96107.31;5082843;28;19931;-63
2022/09/27 05:57:57;;;;;;;;;;;;;;;14.10;100.00;96111.75;5082866;28;19935;-62
2022/09/27 06:00:26;;;;;;;;;;;;;;;14.01;100.00;96117.19;5079394;28;19947;-62
2022/09/27 06:02:55;;;;;;;;;;;;;;;13.90;100.00;96121.38;5079267;28;19967;-62
2022/09/27 06:05:22;;;;;;;;;;;;;;;13.87;100.00;96113.97;5082001;28;19929;-63
2022/09/27 06:07:49;;;;;;;;;;;;;;;13.98;100.00;96117.84;5082976;28;20000;-62
2022/09/27 06:10:15;;;;;;;;;;;;;;;13.85;100.00;96120.78;5080723;28;19920;-63
2022/09/27 06:12:42;;;;;;;;;;;;;;;13.92;100.00;96131.78;5079437;28;19971;-63
2022/09/27 06:15:08;;;;;;;;;;;;;;;13.83;100.00;96134.50;5079946;28;19969;-62
2022/09/27 06:17:36;;;;;;;;;;;;;;;13.95;100.00;96128.44;5082413;28;19951;-63
2022/09/27 06:20:03;;;;;;;;;;;;;;;13.94;100.00;96133.03;5082005;28;19931;-63
2022/09/27 06:22:29;;;;;;;;;;;;;;;13.92;100.00;96131.78;5082617;28;19924;-63
2022/09/27 06:24:56;;;;;;;;;;;;;;;13.86;100.00;96136.56;5083073;28;19991;-62
2022/09/27 06:27:22;;;;;;;;;;;;;;;13.95;100.00;96142.66;5081274;28;19963;-62
2022/09/27 06:29:48;;;;;;;;;;;;;;;13.82;100.00;96142.91;5082254;28;19925;-62
2022/09/27 06:32:15;;;;;;;;;;;;;;;13.94;100.00;96143.75;5080070;28;19924;-62
2022/09/27 06:34:42;;;;;;;;;;;;;;;14.03;100.00;96157.91;5078737;28;19925;-62
2022/09/27 06:37:09;;;;;;;;;;;;;;;14.07;100.00;96161.50;5079408;28;19925;-62
2022/09/27 06:39:35;;;;;;;;;;;;;;;14.14;100.00;96163.66;5082060;28;19924;-62
2022/09/27 06:42:02;;;;;;;;;;;;;;;14.13;100.00;96169.34;5081656;28;19952;-62
2022/09/27 06:44:28;;;;;;;;;;;;;;;13.80;100.00;96174.63;5078618;28;19924;-62
2022/09/27 06:46:54;;;;;;;;;;;;;;;14.05;100.00;96173.66;5078581;28;19935;-62
2022/09/27 06:49:22;;;;;;;;;;;;;;;14.12;100.00;96175.81;5081261;28;19948;-62
2022/09/27 06:51:49;;;;;;;;;;;;;;;14.04;100.00;96177.47;5081762;28;19924;-62
2022/09/27 06:54:16;;;;;;;;;;;;;;;14.08;100.00;96187.22;5073458;28;19989;-63
2022/09/27 06:56:42;;;;;;;;;;;;;;;14.05;100.00;96189.75;5081971;28;19928;-63
2022/09/27 07:01:52;;;;;;;;;;;;;;;14.17;100.00;96189.88;5078297;28;19929;-62
2022/09/27 07:04:19;;;;;;;;;;;;;;;14.12;100.00;96202.66;5080652;28;19948;-63
2022/09/27 07:06:45;;;;;;;;;;;;;;;13.94;100.00;96188.59;5081773;28;19928;-62
2022/09/27 07:09:13;;;;;;;;;;;;;;;13.97;100.00;96193.31;5080095;28;19963;-62
2022/09/27 07:11:42;;;;;;;;;;;;;;;14.12;100.00;96200.78;5078400;28;19984;-62
2022/09/27 07:14:09;;;;;;;;;;;;;;;14.13;100.00;96198.88;5078951;28;19925;-63
2022/09/27 07:16:36;;;;;;;;;;;;;;;14.01;100.00;96192.34;5081661;28;19974;-62
2022/09/27 07:19:02;;;;;;;;;;;;;;;13.85;100.00;96204.75;5081335;28;19930;-62
2022/09/27 07:21:28;;;;;;;;;;;;;;;13.87;100.00;96210.56;5077751;28;19947;-62
2022/09/27 07:23:55;;;;;;;;;;;;;;;14.07;100.00;96212.50;5085386;28;19980;-62
2022/09/27 07:26:22;;;;;;;;;;;;;;;14.14;100.00;96209.31;5078533;28;19952;-61
2022/09/27 07:28:49;;;;;;;;;;;;;;;14.19;100.00;96211.00;5077411;28;20008;-62
2022/09/27 07:31:15;;;;;;;;;;;;;;;13.90;100.00;96217.97;5079839;28;19968;-63
2022/09/27 07:33:42;;;;;;;;;;;;;;;14.11;100.00;96222.59;5081313;28;19924;-63
2022/09/27 07:36:08;;;;;;;;;;;;;;;14.20;100.00;96209.88;5080277;28;19924;-62
2022/09/27 07:38:35;;;;;;;;;;;;;;;14.11;100.00;96222.59;5077913;28;19948;-63
2022/09/27 07:41:05;;;;;;;;;;;;;;;14.24;100.00;96225.00;5077737;28;19964;-62
2022/09/27 07:43:33;;;;;;;;;;;;;;;14.23;100.00;96219.97;5070377;28;19957;-62
2022/09/27 07:45:59;;;;;;;;;;;;;;;14.29;100.00;96218.66;5077895;28;19967;-63
2022/09/27 07:48:25;;;;;;;;;;;;;;;14.29;100.00;96234.78;5081288;28;19920;-63
2022/09/27 07:50:52;;;;;;;;;;;;;;;14.15;100.00;96218.91;5081341;28;19980;-63
2022/09/27 07:53:19;;;;;;;;;;;;;;;14.30;100.00;96225.59;5070234;28;19987;-62
2022/09/27 07:55:49;;;;;;;;;;;;;;;14.12;100.00;96224.13;5077799;28;19952;-62
2022/09/27 07:58:16;;;;;;;;;;;;;;;13.78;100.00;96231.28;5079665;28;20342;-62
2022/09/27 08:00:43;;;;;;;;;;;;;;;13.91;100.00;96229.50;5081210;28;19979;-62
2022/09/27 08:03:13;;;;;;;;;;;;;;;14.09;100.00;96239.00;5079716;28;19925;-62
2022/09/27 08:05:39;;;;;;;;;;;;;;;13.93;100.00;96238.78;5077501;28;19925;-63
2022/09/27 08:08:06;;;;;;;;;;;;;;;14.11;100.00;96241.38;5078017;28;19948;-64
2022/09/27 08:10:33;;;;;;;;;;;;;;;13.84;100.00;96242.63;5081136;28;20129;-62
2022/09/27 08:13:02;;;;;;;;;;;;;;;14.10;100.00;96253.22;5080985;28;20007;-62
2022/09/27 08:15:28;;;;;;;;;;;;;;;14.11;100.00;96252.13;5069518;28;19973;-62
2022/09/27 08:17:56;;;;;;;;;;;;;;;14.21;100.00;96254.41;5077567;28;19956;-62
2022/09/27 08:20:22;;;;;;;;;;;;;;;14.04;100.00;96252.63;5080173;28;19951;-62
2022/09/27 08:22:49;;;;;;;;;;;;;;;13.95;100.00;96263.41;5080866;28;19967;-63
2022/09/27 08:25:15;;;;;;;;;;;;;;;13.75;100.00;96272.19;5080731;28;19928;-63
2022/09/27 08:27:42;;;;;;;;;;;;;;;13.86;100.00;96264.56;5081010;28;19929;-63
2022/09/27 08:30:08;;;;;;;;;;;;;;;13.94;100.00;96271.78;5080191;28;19951;-62
2022/09/27 08:32:36;;;;;;;;;;;;;;;13.68;100.00;96266.53;5077664;28;19959;-64
2022/09/27 08:35:06;;;;;;;;;;;;;;;13.78;100.00;96271.53;5077434;28;19952;-62
2022/09/27 08:37:32;;;;;;;;;;;;;;;13.80;100.00;96276.59;5080955;28;19925;-62
2022/09/27 08:39:59;;;;;;;;;;;;;;;13.75;100.00;96276.75;5080820;28;19964;-62
2022/09/27 08:42:31;;;;;;;;;;;;;;;14.02;100.00;96278.97;5080447;28;19925;-63
2022/09/27 08:45:01;;;;;;;;;;;;;;;14.13;100.00;96293.63;5080890;28;19924;-62
2022/09/27 08:47:30;;;;;;;;;;;;;;;14.07;100.00;96287.66;5072616;28;19955;-63
2022/09/27 08:49:58;;;;;;;;;;;;;;;13.83;100.00;96289.34;5080807;28;19996;-62
2022/09/27 08:52:29;;;;;;;;;;;;;;;13.77;100.00;96299.47;5080457;28;19979;-63
2022/09/27 08:54:58;;;;;;;;;;;;;;;13.92;100.00;96301.63;5078719;28;19981;-63
2022/09/27 08:57:24;;;;;;;;;;;;;;;13.99;100.00;96301.09;5080908;28;19947;-62
2022/09/27 08:59:54;;;;;;;;;;;;;;;13.87;100.00;96298.31;5080681;28;19979;-62
2022/09/27 09:02:23;;;;;;;;;;;;;;;13.86;100.00;96292.19;5083270;28;19925;-62
2022/09/27 09:04:51;;;;;;;;;;;;;;;13.95;100.00;96295.63;5083186;28;19950;-62
2022/09/27 09:07:24;;;;;;;;;;;;;;;14.19;100.00;96300.38;5081691;28;20019;-63
2022/09/27 09:09:57;;;;;;;;;;;;;;;14.27;100.00;96296.06;5080485;28;19952;-62
2022/09/27 09:12:46;;;;;;;;;;;;;;;14.01;100.00;96302.38;5083482;28;19983;-62
2022/09/27 09:15:18;;;;;;;;;;;;;;;14.11;100.00;96303.13;5082058;28;19925;-62
2022/09/27 09:18:00;;;;;;;;;;;;;;;14.02;100.00;96311.19;5081467;28;19940;-62
2022/09/27 09:20:31;;;;;;;;;;;;;;;13.92;100.00;96312.38;5071906;28;19931;-63
2022/09/27 09:23:06;;;;;;;;;;;;;;;14.20;100.00;96310.00;5088139;28;19931;-62
2022/09/27 09:25:39;;;;;;;;;;;;;;;13.84;100.00;96310.50;5072899;28;19925;-62
2022/09/27 09:28:11;;;;;;;;;;;;;;;14.06;100.00;96323.66;5080654;28;19928;-62
2022/09/27 09:30:44;;;;;;;;;;;;;;;13.92;100.00;96311.56;5083416;28;19925;-63
2022/09/27 09:33:18;;;;;;;;;;;;;;;13.85;100.00;96319.31;5082089;28;19970;-62
2022/09/27 09:35:47;;;;;;;;;;;;;;;14.13;100.00;96322.34;5079803;28;20016;-62
2022/09/27 09:38:18;;;;;;;;;;;;;;;14.22;100.00;96323.88;5081243;28;19956;-63
2022/09/27 09:40:48;;;;;;;;;;;;;;;14.38;100.00;96340.25;5083250;28;19966;-62
2022/09/27 09:43:16;;;;;;;;;;;;;;;13.95;100.00;96332.41;5081346;28;19959;-62
2022/09/27 09:45:44;;;;;;;;;;;;;;;14.23;100.00;96335.41;5078571;28;19959;-62
2022/09/27 09:48:16;;;;;;;;;;;;;;;14.23;100.00;96327.38;5080795;28;19971;-63
2022/09/27 09:50:45;;;;;;;;;;;;;;;14.35;100.00;96330.16;5083135;28;19979;-63
2022/09/27 09:53:13;;;;;;;;;;;;;;;14.29;100.00;96323.38;5074295;28;19959;-63
2022/09/27 09:55:42;;;;;;;;;;;;;;;14.41;100.00;96318.13;5083076;28;19930;-62
2022/09/27 09:58:19;;;;;;;;;;;;;;;14.36;100.00;96326.38;5081959;28;19964;-63
2022/09/27 10:00:47;;;;;;;;;;;;;;;14.29;100.00;96328.75;5079390;28;19956;-63
2022/09/27 10:03:13;;;;;;;;;;;;;;;14.39;100.00;96323.03;5080979;28;19960;-63
2022/09/27 10:05:43;;;;;;;;;;;;;;;14.40;100.00;96333.44;5082917;28;19960;-62
2022/09/27 10:08:12;;;;;;;;;;;;;;;14.31;100.00;96326.50;5081600;28;19963;-63
2022/09/27 10:10:39;;;;;;;;;;;;;;;14.36;100.00;96315.63;5079311;28;19953;-62
2022/09/27 10:13:12;;;;;;;;;;;;;;;14.42;100.00;96312.41;5079762;28;19921;-63
2022/09/27 10:15:40;;;;;;;;;;;;;;;14.26;100.00;96314.09;5082502;28;19959;-63
2022/09/27 10:18:13;;;;;;;;;;;;;;;14.41;100.00;96302.81;5081759;28;19962;-62
2022/09/27 10:20:42;;;;;;;;;;;;;;;14.45;100.00;96309.06;5078893;28;19988;-63
2022/09/27 10:23:11;;;;;;;;;;;;;;;14.40;100.00;96311.16;5079505;28;20386;-61
2022/09/27 10:25:45;;;;;;;;;;;;;;;14.64;100.00;96313.25;5082418;28;19960;-62
2022/09/27 10:28:25;;;;;;;;;;;;;;;14.66;100.00;96319.06;5080619;28;19988;-62
2022/09/27 10:30:56;;;;;;;;;;;;;;;14.53;100.00;96327.03;5079098;28;19992;-62
2022/09/27 10:33:23;;;;;;;;;;;;;;;14.86;100.00;96329.81;5082024;28;19954;-63
2022/09/27 10:35:49;;;;;;;;;;;;;;;15.00;100.00;96322.28;5082326;28;20057;-62
2022/09/27 10:38:21;;;;;;;;;;;;;;;15.00;100.00;96319.59;5080233;28;19928;-63
2022/09/27 10:40:48;;;;;;;;;;;;;;;14.88;100.00;96306.09;5078804;28;19994;-62
2022/09/27 10:43:24;;;;;;;;;;;;;;;14.98;100.00;96311.03;5080332;28;19973;-63
2022/09/27 10:45:50;;;;;;;;;;;;;;;15.01;100.00;96313.06;5082159;28;19928;-63
2022/09/27 10:48:22;;;;;;;;;;;;;;;15.03;100.00;96302.00;5079937;28;19952;-63
2022/09/27 10:50:56;;;;;;;;;;;;;;;14.99;100.00;96318.00;5078449;28;20312;-64
2022/09/27 10:53:22;;;;;;;;;;;;;;;15.03;100.00;96320.81;5081111;28;19963;-63
2022/09/27 10:55:50;;;;;;;;;;;;;;;15.02;100.00;96330.78;5081694;28;19948;-64
2022/09/27 10:58:18;;;;;;;;;;;;;;;14.86;100.00;96324.44;5079721;28;19925;-63
2022/09/27 11:00:54;;;;;;;;;;;;;;;14.81;100.00;96338.06;5078369;28;19928;-63
2022/09/27 11:03:24;;;;;;;;;;;;;;;14.67;100.00;96326.03;5080302;28;19984;-64
2022/09/27 11:05:53;;;;;;;;;;;;;;;14.53;100.00;96353.13;5081650;28;19924;-62
2022/09/27 11:08:26;;;;;;;;;;;;;;;14.54;100.00;96363.53;5078997;28;19924;-63
2022/09/27 11:11:06;;;;;;;;;;;;;;;14.56;100.00;96357.84;5078379;28;19951;-62
2022/09/27 11:13:34;;;;;;;;;;;;;;;14.59;100.00;96341.84;5070870;28;19967;-62
2022/09/27 11:16:15;;;;;;;;;;;;;;;14.63;100.00;96350.06;5078095;28;19921;-63
2022/09/27 11:18:48;;;;;;;;;;;;;;;14.65;100.00;96347.81;5072599;28;19952;-62
2022/09/27 11:21:22;;;;;;;;;;;;;;;14.69;100.00;96339.91;5079749;28;19925;-63
2022/09/27 11:23:59;;;;;;;;;;;;;;;14.79;100.00;96361.03;5080941;28;20888;-62
2022/09/27 11:26:30;;;;;;;;;;;;;;;14.75;100.00;96338.59;5078364;28;19967;-64
2022/09/27 11:29:01;;;;;;;;;;;;;;;14.85;100.00;96348.97;5077455;28;19929;-63
2022/09/27 11:31:34;;;;;;;;;;;;;;;14.82;100.00;96355.00;5069875;28;19925;-63
2022/09/27 11:34:12;;;;;;;;;;;;;;;14.83;100.00;96346.59;5077900;28;19925;-63
2022/09/27 11:36:45;;;;;;;;;;;;;;;14.64;100.00;96346.25;5071163;28;19933;-63
2022/09/27 11:39:14;;;;;;;;;;;;;;;14.65;100.00;96347.81;5079039;28;19960;-62
2022/09/27 11:41:52;;;;;;;;;;;;;;;14.67;100.00;96352.88;5081230;28;19925;-63
2022/09/27 11:44:37;;;;;;;;;;;;;;;14.66;100.00;96354.78;5078860;28;19954;-63
2022/09/27 11:47:12;;;;;;;;;;;;;;;14.50;100.00;96322.34;5077206;28;19924;-62
2022/09/27 11:50:11;;;;;;;;;;;;;;;14.61;100.00;96327.31;5081313;28;19939;-61
2022/09/27 11:52:47;;;;;;;;;;;;;;;14.67;100.00;96337.53;5035553;28;20001;-62
2022/09/27 11:55:19;;;;;;;;;;;;;;;14.68;100.00;96332.94;5037142;28;19968;-62
2022/09/27 11:57:49;;;;;;;;;;;;;;;14.80;100.00;96333.81;5061650;28;19925;-62
2022/09/27 12:00:18;;;;;;;;;;;;;;;14.98;100.00;96343.31;5079497;28;20015;-62
2022/09/27 12:03:06;;;;;;;;;;;;;;;15.02;100.00;96317.34;5077980;28;19960;-63
2022/09/27 12:05:37;;;;;;;;;;;;;;;14.87;100.00;96312.56;5070273;28;20440;-62
2022/09/27 12:08:09;;;;;;;;;;;;;;;14.96;100.00;96318.66;5077874;28;19964;-62
2022/09/27 12:10:37;;;;;;;;;;;;;;;14.88;100.00;96316.06;5081065;28;19984;-62
2022/09/27 12:13:04;;;;;;;;;;;;;;;14.91;100.00;96321.56;5080753;28;19982;-63
2022/09/27 12:15:34;;;;;;;;;;;;;;;14.93;100.00;96327.38;5079345;28;19989;-62
2022/09/27 12:18:05;;;;;;;;;;;;;;;15.14;100.00;96322.75;5081590;28;19920;-63
2022/09/27 12:20:35;;;;;;;;;;;;;;;15.23;100.00;96325.38;5073685;28;19931;-63
2022/09/27 12:23:03;;;;;;;;;;;;;;;15.36;100.00;96328.88;5081257;28;19928;-62
2022/09/27 12:25:33;;;;;;;;;;;;;;;15.24;100.00;96316.19;5073353;28;19960;-62
2022/09/27 12:28:03;;;;;;;;;;;;;;;15.36;100.00;96324.31;5081595;28;19993;-63
2022/09/27 12:30:31;;;;;;;;;;;;;;;15.29;100.00;96315.97;5073497;28;19984;-62
2022/09/27 12:33:00;;;;;;;;;;;;;;;15.11;100.00;96317.25;5081316;28;19996;-62
2022/09/27 12:35:28;;;;;;;;;;;;;;;15.23;100.00;96316.50;5084496;28;19928;-62
2022/09/27 12:37:59;;;;;;;;;;;;;;;15.01;100.00;96318.44;5084685;28;19924;-62
2022/09/27 12:40:28;;;;;;;;;;;;;;;15.06;100.00;96304.81;5081250;28;19963;-62
2022/09/27 12:43:00;;;;;;;;;;;;;;;15.11;100.00;96328.81;5080993;28;19993;-62
2022/09/27 12:45:34;;;;;;;;;;;;;;;15.08;100.00;96321.41;5084196;28;19987;-63
2022/09/27 12:48:06;;;;;;;;;;;;;;;14.75;100.00;96323.25;5084275;28;19920;-63
2022/09/27 12:50:35;;;;;;;;;;;;;;;14.93;100.00;96300.50;5073202;28;19932;-63